createdAt,value
2024-02-07T00:00:48.976Z,2.45
2024-02-07T00:03:17.283Z,2.00
2024-02-07T00:05:45.941Z,2.40
2024-02-07T00:08:16.422Z,2.60
2024-02-07T00:10:44.904Z,2.90
2024-02-07T00:13:13.173Z,2.50
2024-02-07T00:15:41.796Z,2.13
2024-02-07T00:18:10.178Z,1.75
2024-02-07T00:20:38.436Z,2.58
2024-02-07T00:23:08.581Z,2.13
2024-02-07T00:25:38.394Z,2.20
2024-02-07T00:28:08.327Z,2.70
2024-02-07T00:30:40.270Z,2.15
2024-02-07T00:33:11.850Z,1.92
2024-02-07T00:35:40.044Z,2.53
2024-02-07T00:38:08.289Z,3.50
2024-02-07T00:40:36.512Z,2.25
2024-02-07T00:43:06.283Z,2.42
2024-02-07T00:45:34.430Z,2.30
2024-02-07T00:48:02.706Z,2.63
2024-02-07T00:50:31.011Z,2.53
2024-02-07T00:52:59.226Z,2.88
2024-02-07T00:55:27.390Z,2.45
2024-02-07T00:57:56.286Z,3.10
2024-02-07T01:00:26.703Z,2.25
2024-02-07T01:02:55.122Z,2.20
2024-02-07T01:05:23.870Z,2.40
2024-02-07T01:07:52.067Z,1.85
2024-02-07T01:10:20.338Z,2.30
2024-02-07T01:12:48.496Z,2.13
2024-02-07T01:15:16.789Z,2.60
2024-02-07T01:17:46.377Z,2.53
2024-02-07T01:20:15.001Z,2.60
2024-02-07T01:22:43.516Z,2.45
2024-02-07T01:25:14.795Z,2.30
2024-02-07T01:27:43.330Z,2.05
2024-02-07T01:30:14.641Z,2.60
2024-02-07T01:32:43.908Z,2.95
2024-02-07T01:35:14.406Z,2.80
2024-02-07T01:37:46.913Z,2.65
2024-02-07T01:40:15.649Z,2.85
2024-02-07T01:42:46.225Z,2.45
2024-02-07T01:45:22.635Z,2.60
2024-02-07T01:47:51.604Z,2.45
2024-02-07T01:50:25.288Z,2.42
2024-02-07T01:52:56.596Z,2.63
2024-02-07T01:55:26.567Z,2.90
2024-02-07T01:57:56.101Z,2.97
2024-02-07T02:00:24.320Z,2.50
2024-02-07T02:02:54.561Z,2.40
2024-02-07T02:05:24.113Z,2.85
2024-02-07T02:07:52.906Z,2.22
2024-02-07T02:10:22.170Z,2.95
2024-02-07T02:12:50.808Z,2.40
2024-02-07T02:15:24.138Z,2.60
2024-02-07T02:17:54.191Z,2.97
2024-02-07T02:20:24.720Z,2.42
2024-02-07T02:23:10.209Z,2.05
2024-02-07T02:25:48.183Z,2.47
2024-02-07T02:28:32.494Z,2.13
2024-02-07T02:31:05.554Z,2.50
2024-02-07T02:33:36.484Z,2.88
2024-02-07T02:36:11.246Z,2.15
2024-02-07T02:38:39.405Z,1.90
2024-02-07T02:41:09.411Z,2.85
2024-02-07T02:43:40.652Z,1.88
2024-02-07T02:46:13.847Z,1.85
2024-02-07T02:48:43.471Z,2.53
2024-02-07T02:51:14.145Z,2.20
2024-02-07T02:53:42.266Z,2.20
2024-02-07T02:56:11.097Z,2.10
2024-02-07T02:58:43.724Z,2.20
2024-02-07T03:01:15.149Z,2.63
2024-02-07T03:03:56.918Z,2.20
2024-02-07T03:06:33.065Z,2.25
2024-02-07T03:09:09.820Z,2.40
2024-02-07T03:11:38.318Z,2.72
2024-02-07T03:14:08.031Z,2.60
2024-02-07T03:16:38.158Z,1.65
2024-02-07T03:19:06.398Z,1.90
2024-02-07T03:21:34.670Z,2.00
2024-02-07T03:24:05.670Z,2.20
2024-02-07T03:26:33.852Z,2.10
2024-02-07T03:29:02.850Z,3.40
2024-02-07T03:31:33.118Z,2.90
2024-02-07T03:34:02.996Z,2.70
2024-02-07T03:36:31.171Z,2.90
2024-02-07T03:39:00.148Z,2.30
2024-02-07T03:41:28.721Z,2.40
2024-02-07T03:43:59.931Z,2.35
2024-02-07T03:46:28.742Z,2.53
2024-02-07T03:48:59.976Z,2.60
2024-02-07T03:51:30.006Z,2.60
2024-02-07T03:54:01.056Z,2.03
2024-02-07T03:56:30.182Z,2.22
2024-02-07T03:58:59.669Z,2.72
2024-02-07T04:01:28.933Z,2.33
2024-02-07T04:03:58.778Z,3.35
2024-02-07T04:06:29.498Z,2.58
2024-02-07T04:09:05.059Z,2.78
2024-02-07T04:11:32.290Z,2.35
2024-02-07T04:13:59.221Z,2.83
2024-02-07T04:16:44.897Z,2.55
2024-02-07T04:19:30.450Z,2.40
2024-02-07T04:22:18.942Z,2.05
2024-02-07T04:25:06.191Z,3.08
2024-02-07T04:27:51.694Z,2.08
2024-02-07T04:30:37.698Z,3.13
2024-02-07T04:33:23.907Z,2.22
2024-02-07T04:36:09.460Z,2.13
2024-02-07T04:38:54.888Z,2.92
2024-02-07T04:41:44.878Z,2.38
2024-02-07T04:44:30.514Z,2.40
2024-02-07T04:47:16.088Z,2.30
2024-02-07T04:50:01.709Z,2.70
2024-02-07T04:52:47.409Z,2.00
2024-02-07T04:55:32.956Z,2.42
2024-02-07T04:58:20.158Z,2.30
2024-02-07T05:01:05.898Z,2.58
2024-02-07T05:03:53.980Z,2.65
2024-02-07T05:06:39.491Z,2.38
2024-02-07T05:09:24.881Z,2.38
2024-02-07T05:12:10.309Z,2.15
2024-02-07T05:14:50.605Z,2.03
2024-02-07T05:17:20.852Z,2.10
2024-02-07T05:19:49.317Z,1.67
2024-02-07T05:22:18.405Z,2.70
2024-02-07T05:24:48.272Z,2.00
2024-02-07T05:27:17.866Z,2.53
2024-02-07T05:29:47.356Z,2.45
2024-02-07T05:32:15.645Z,1.60
2024-02-07T05:34:44.099Z,2.17
2024-02-07T05:37:12.646Z,2.78
2024-02-07T05:39:41.132Z,2.20
2024-02-07T05:42:09.446Z,2.40
2024-02-07T05:44:37.583Z,2.78
2024-02-07T05:47:10.581Z,3.47
2024-02-07T05:49:40.865Z,2.35
2024-02-07T05:52:09.037Z,2.55
2024-02-07T05:54:37.111Z,3.03
2024-02-07T05:57:05.697Z,2.65
2024-02-07T05:59:33.756Z,3.92
2024-02-07T06:02:06.258Z,3.15
2024-02-07T06:04:36.484Z,2.97
2024-02-07T06:07:04.884Z,2.88
2024-02-07T06:09:33.262Z,4.07
2024-02-07T06:12:01.862Z,3.20
2024-02-07T06:14:32.185Z,2.67
2024-02-07T06:17:00.396Z,3.22
2024-02-07T06:19:28.755Z,3.40
2024-02-07T06:21:57.284Z,3.55
2024-02-07T06:24:25.349Z,3.00
2024-02-07T06:26:53.598Z,3.22
2024-02-07T06:29:21.707Z,3.58
2024-02-07T06:31:50.008Z,3.72
2024-02-07T06:34:18.389Z,3.15
2024-02-07T06:36:46.598Z,3.42
2024-02-07T06:39:16.090Z,3.25
2024-02-07T06:41:44.234Z,4.45
2024-02-07T06:44:12.426Z,3.83
2024-02-07T06:46:44.477Z,3.92
2024-02-07T06:49:13.175Z,4.40
2024-02-07T06:51:42.574Z,2.67
2024-02-07T06:54:15.609Z,3.30
2024-02-07T06:56:45.318Z,3.60
2024-02-07T06:59:13.492Z,3.45
2024-02-07T07:01:42.653Z,3.00
2024-02-07T07:04:12.470Z,4.38
2024-02-07T07:06:40.851Z,3.30
2024-02-07T07:09:08.930Z,3.67
2024-02-07T07:11:37.140Z,3.10
2024-02-07T07:14:06.864Z,3.38
2024-02-07T07:16:35.042Z,4.10
2024-02-07T07:19:03.446Z,3.50
2024-02-07T07:21:32.341Z,3.30
2024-02-07T07:24:00.817Z,3.22
2024-02-07T07:26:29.209Z,4.45
2024-02-07T07:28:58.547Z,3.10
2024-02-07T07:31:28.751Z,3.90
2024-02-07T07:33:57.058Z,3.75
2024-02-07T07:36:28.206Z,4.05
2024-02-07T07:38:57.193Z,3.53
2024-02-07T07:41:25.721Z,4.10
2024-02-07T07:43:54.347Z,3.53
2024-02-07T07:46:22.998Z,5.22
2024-02-07T07:48:52.913Z,4.05
2024-02-07T07:51:21.793Z,3.90
2024-02-07T07:53:50.398Z,4.20
2024-02-07T07:56:18.529Z,3.92
2024-02-07T07:58:52.951Z,3.28
2024-02-07T08:01:23.532Z,4.00
2024-02-07T08:03:55.982Z,3.83
2024-02-07T08:06:24.298Z,3.83
2024-02-07T08:08:52.688Z,3.72
2024-02-07T08:11:20.953Z,3.53
2024-02-07T08:13:49.315Z,4.00
2024-02-07T08:16:19.573Z,3.80
2024-02-07T08:18:48.506Z,4.60
2024-02-07T08:21:19.130Z,3.70
2024-02-07T08:23:47.612Z,4.20
2024-02-07T08:26:15.683Z,3.22
2024-02-07T08:28:43.876Z,3.90
2024-02-07T08:31:12.729Z,4.53
2024-02-07T08:33:41.201Z,3.97
2024-02-07T08:36:10.474Z,3.45
2024-02-07T08:38:42.660Z,3.65
2024-02-07T08:41:10.993Z,3.50
2024-02-07T08:43:39.148Z,5.50
2024-02-07T08:46:10.432Z,4.00
2024-02-07T08:48:38.857Z,3.83
2024-02-07T08:51:10.035Z,3.83
2024-02-07T08:53:38.167Z,3.90
2024-02-07T08:56:08.247Z,3.70
2024-02-07T08:58:37.805Z,3.92
2024-02-07T09:01:10.196Z,3.70
2024-02-07T09:03:38.419Z,3.92
2024-02-07T09:06:10.300Z,3.85
2024-02-07T09:08:38.648Z,3.40
2024-02-07T09:11:08.206Z,3.65
2024-02-07T09:13:36.578Z,3.67
2024-02-07T09:16:05.062Z,3.67
2024-02-07T09:18:35.523Z,3.10
2024-02-07T09:21:05.643Z,3.00
2024-02-07T09:23:33.653Z,3.17
2024-02-07T09:26:02.073Z,4.32
2024-02-07T09:28:31.577Z,3.42
2024-02-07T09:30:59.714Z,3.15
2024-02-07T09:33:28.283Z,3.45
2024-02-07T09:35:58.965Z,3.40
2024-02-07T09:38:27.845Z,3.78
2024-02-07T09:40:58.411Z,4.07
2024-02-07T09:43:26.994Z,3.38
2024-02-07T09:45:59.417Z,2.95
2024-02-07T09:48:29.639Z,2.97
2024-02-07T09:51:00.660Z,3.40
2024-02-07T09:53:33.622Z,3.33
2024-02-07T09:56:04.676Z,3.28
2024-02-07T09:58:36.638Z,3.28
2024-02-07T10:01:08.756Z,3.38
2024-02-07T10:03:42.350Z,3.97
2024-02-07T10:06:14.171Z,3.70
2024-02-07T10:08:47.133Z,2.58
2024-02-07T10:11:15.309Z,2.95
2024-02-07T10:13:43.468Z,2.67
2024-02-07T10:16:14.132Z,2.80
2024-02-07T10:18:42.409Z,2.38
2024-02-07T10:21:10.695Z,2.55
2024-02-07T10:23:42.484Z,2.50
2024-02-07T10:26:12.167Z,1.92
2024-02-07T10:28:40.451Z,2.53
2024-02-07T10:31:08.690Z,1.80
2024-02-07T10:33:43.020Z,2.00
2024-02-07T10:36:13.996Z,2.20
2024-02-07T10:38:42.915Z,2.10
2024-02-07T10:41:11.536Z,2.00
2024-02-07T10:43:43.040Z,2.13
2024-02-07T10:46:15.317Z,2.10
2024-02-07T10:48:48.673Z,1.45
2024-02-07T10:51:16.890Z,2.97
2024-02-07T10:53:45.021Z,1.50
2024-02-07T10:56:16.197Z,1.85
2024-02-07T10:58:45.884Z,1.80
2024-02-07T11:01:16.134Z,1.58
2024-02-07T11:03:48.012Z,2.17
2024-02-07T11:06:16.592Z,1.90
2024-02-07T11:08:45.065Z,1.70
2024-02-07T11:11:16.199Z,1.45
2024-02-07T11:13:45.073Z,1.70
2024-02-07T11:16:13.276Z,1.83
2024-02-07T11:18:41.411Z,1.75
2024-02-07T11:21:13.641Z,2.25
2024-02-07T11:23:46.451Z,1.40
2024-02-07T11:26:19.119Z,1.77
2024-02-07T11:28:48.504Z,2.22
2024-02-07T11:31:19.791Z,1.58
2024-02-07T11:33:53.683Z,1.60
2024-02-07T11:36:23.552Z,1.63
2024-02-07T11:38:56.246Z,1.70
2024-02-07T11:41:25.458Z,1.42
2024-02-07T11:43:55.427Z,1.77
2024-02-07T11:46:24.472Z,1.85
2024-02-07T11:48:54.694Z,1.50
2024-02-07T11:51:25.190Z,1.40
2024-02-07T11:53:59.651Z,1.02
2024-02-07T11:56:29.482Z,1.35
2024-02-07T11:58:59.859Z,2.08
2024-02-07T12:01:30.134Z,1.30
2024-02-07T12:03:59.406Z,2.05
2024-02-07T12:06:29.240Z,1.20
2024-02-07T12:08:58.109Z,1.65
2024-02-07T12:11:26.286Z,1.38
2024-02-07T12:13:54.493Z,1.90
2024-02-07T12:16:23.726Z,1.20
2024-02-07T12:18:52.040Z,1.10
2024-02-07T12:21:23.363Z,1.30
2024-02-07T12:23:54.920Z,1.48
2024-02-07T12:26:26.323Z,1.35
2024-02-07T12:28:57.737Z,1.00
2024-02-07T12:31:27.235Z,1.42
2024-02-07T12:33:55.756Z,1.27
2024-02-07T12:36:24.111Z,1.70
2024-02-07T12:38:52.497Z,1.40
2024-02-07T12:41:22.162Z,1.30
2024-02-07T12:43:50.560Z,0.95
2024-02-07T12:46:18.937Z,1.00
2024-02-07T12:48:47.610Z,1.17
2024-02-07T12:51:16.902Z,1.40
2024-02-07T12:53:45.241Z,1.00
2024-02-07T12:56:18.515Z,1.35
2024-02-07T12:58:48.537Z,1.10
2024-02-07T13:01:24.968Z,1.00
2024-02-07T13:03:55.903Z,1.15
2024-02-07T13:06:24.468Z,1.08
2024-02-07T13:08:53.539Z,0.80
2024-02-07T13:11:21.789Z,1.30
2024-02-07T13:13:51.489Z,1.00
2024-02-07T13:16:23.871Z,1.15
2024-02-07T13:18:54.630Z,1.05
2024-02-07T13:21:23.059Z,0.90
2024-02-07T13:23:51.327Z,0.88
2024-02-07T13:26:23.105Z,1.10
2024-02-07T13:28:52.999Z,1.00
2024-02-07T13:31:21.291Z,1.02
2024-02-07T13:33:50.123Z,0.70
2024-02-07T13:36:18.536Z,0.90
2024-02-07T13:38:46.909Z,0.75
2024-02-07T13:41:24.454Z,0.88
2024-02-07T13:43:55.086Z,1.10
2024-02-07T13:46:23.198Z,1.02
2024-02-07T13:48:53.959Z,0.80
2024-02-07T13:51:22.293Z,1.10
2024-02-07T13:53:50.625Z,0.98
2024-02-07T13:56:19.376Z,1.38
2024-02-07T13:58:47.929Z,0.90
2024-02-07T14:01:19.598Z,0.90
2024-02-07T14:03:47.903Z,1.10
2024-02-07T14:06:18.914Z,1.15
2024-02-07T14:08:47.168Z,0.93
2024-02-07T14:11:15.294Z,0.93
2024-02-07T14:13:43.525Z,1.27
2024-02-07T14:16:18.480Z,1.00
2024-02-07T14:18:46.816Z,1.40
2024-02-07T14:21:15.084Z,1.40
2024-02-07T14:23:43.333Z,1.10
2024-02-07T14:26:15.273Z,1.40
2024-02-07T14:28:47.236Z,0.82
2024-02-07T14:31:15.732Z,1.20
2024-02-07T14:33:45.307Z,0.80
2024-02-07T14:36:13.655Z,0.90
2024-02-07T14:38:41.752Z,0.82
2024-02-07T14:41:10.083Z,0.70
2024-02-07T14:43:42.926Z,0.73
2024-02-07T14:46:16.639Z,0.77
2024-02-07T14:48:46.976Z,0.93
2024-02-07T14:51:15.793Z,1.10
2024-02-07T14:53:45.662Z,0.95
2024-02-07T14:56:14.164Z,0.90
2024-02-07T14:58:42.742Z,1.00
2024-02-07T15:01:16.047Z,1.00
2024-02-07T15:03:47.768Z,0.90
2024-02-07T15:06:19.980Z,1.48
2024-02-07T15:08:49.598Z,0.90
2024-02-07T15:11:17.764Z,1.10
2024-02-07T15:13:45.828Z,1.00
2024-02-07T15:16:15.140Z,1.33
2024-02-07T15:18:43.380Z,0.93
2024-02-07T15:21:13.243Z,1.15
2024-02-07T15:23:44.514Z,1.20
2024-02-07T15:26:14.536Z,1.35
2024-02-07T15:28:42.688Z,1.10
2024-02-07T15:31:10.721Z,1.20
2024-02-07T15:33:42.153Z,1.50
2024-02-07T15:36:14.095Z,1.25
2024-02-07T15:38:42.521Z,1.80
2024-02-07T15:41:10.914Z,1.50
2024-02-07T15:43:39.234Z,1.30
2024-02-07T15:46:07.740Z,1.40
2024-02-07T15:48:36.861Z,1.40
2024-02-07T15:51:07.205Z,1.58
2024-02-07T15:53:37.451Z,1.42
2024-02-07T15:56:06.501Z,1.33
2024-02-07T15:58:34.853Z,1.60
2024-02-07T16:01:03.231Z,1.85
2024-02-07T16:03:36.664Z,1.52
2024-02-07T16:06:05.971Z,1.80
2024-02-07T16:08:36.284Z,1.95
2024-02-07T16:11:07.122Z,1.85
2024-02-07T16:13:35.989Z,2.15
2024-02-07T16:16:04.201Z,1.80
2024-02-07T16:18:35.118Z,2.20
2024-02-07T16:21:03.560Z,2.30
2024-02-07T16:23:33.857Z,2.05
2024-02-07T16:26:04.799Z,2.40
2024-02-07T16:28:33.276Z,1.67
2024-02-07T16:31:07.055Z,1.75
2024-02-07T16:33:35.287Z,1.75
2024-02-07T16:36:08.641Z,1.50
2024-02-07T16:38:40.032Z,1.75
2024-02-07T16:41:12.244Z,1.70
2024-02-07T16:43:41.066Z,1.75
2024-02-07T16:46:12.064Z,2.30
2024-02-07T16:48:41.138Z,1.60
2024-02-07T16:51:09.593Z,2.08
2024-02-07T16:53:39.010Z,1.55
2024-02-07T16:56:10.506Z,1.70
2024-02-07T16:58:40.054Z,2.38
2024-02-07T17:01:08.177Z,2.13
2024-02-07T17:03:40.960Z,2.00
2024-02-07T17:06:09.235Z,2.08
2024-02-07T17:08:37.297Z,1.65
2024-02-07T17:11:05.941Z,1.77
2024-02-07T17:13:34.278Z,1.83
2024-02-07T17:16:05.338Z,1.83
2024-02-07T17:18:33.686Z,2.00
2024-02-07T17:21:06.321Z,2.20
2024-02-07T17:23:37.795Z,1.83
2024-02-07T17:26:06.212Z,1.90
2024-02-07T17:28:40.271Z,2.00
2024-02-07T17:31:09.871Z,2.72
2024-02-07T17:33:38.085Z,1.80
2024-02-07T17:36:07.060Z,1.65
2024-02-07T17:38:35.252Z,2.05
2024-02-07T17:41:07.371Z,1.98
2024-02-07T17:43:37.694Z,1.88
2024-02-07T17:46:06.231Z,1.60
2024-02-07T17:48:37.190Z,2.35
2024-02-07T17:51:05.814Z,1.80
2024-02-07T17:53:33.973Z,2.17
2024-02-07T17:56:02.269Z,2.00
2024-02-07T17:58:33.623Z,2.22
2024-02-07T18:01:01.712Z,2.33
2024-02-07T18:03:29.921Z,2.67
2024-02-07T18:06:02.751Z,2.08
2024-02-07T18:08:35.058Z,2.15
2024-02-07T18:11:03.501Z,2.83
2024-02-07T18:13:33.144Z,2.45
2024-02-07T18:16:01.531Z,3.15
2024-02-07T18:18:33.008Z,3.42
2024-02-07T18:21:11.178Z,1.80
2024-02-07T18:23:44.945Z,2.38
2024-02-07T18:26:17.932Z,2.67
2024-02-07T18:28:52.190Z,2.05
2024-02-07T18:31:28.309Z,2.00
2024-02-07T18:34:06.782Z,2.05
2024-02-07T18:36:41.510Z,1.92
2024-02-07T18:39:22.662Z,1.88
2024-02-07T18:41:53.044Z,2.00
2024-02-07T18:44:23.685Z,2.65
2024-02-07T18:46:56.368Z,2.00
2024-02-07T18:49:27.775Z,2.33
2024-02-07T18:51:59.951Z,2.47
2024-02-07T18:54:31.079Z,2.10
2024-02-07T18:57:03.464Z,2.22
2024-02-07T18:59:37.500Z,1.80
2024-02-07T19:02:08.597Z,2.55
2024-02-07T19:04:40.861Z,1.58
2024-02-07T19:07:12.762Z,1.90
2024-02-07T19:09:46.905Z,2.17
2024-02-07T19:12:25.057Z,2.20
2024-02-07T19:15:02.170Z,1.70
2024-02-07T19:17:43.237Z,1.70
2024-02-07T19:20:14.396Z,2.28
2024-02-07T19:22:45.491Z,2.08
2024-02-07T19:25:18.709Z,2.00
2024-02-07T19:27:49.767Z,2.25
2024-02-07T19:30:20.584Z,2.40
2024-02-07T19:32:51.611Z,1.80
2024-02-07T19:35:25.477Z,1.88
2024-02-07T19:37:58.436Z,2.00
2024-02-07T19:40:28.681Z,2.03
2024-02-07T19:43:05.162Z,1.55
2024-02-07T19:45:38.608Z,1.58
2024-02-07T19:48:10.296Z,2.28
2024-02-07T19:50:41.723Z,1.70
2024-02-07T19:53:18.283Z,2.13
2024-02-07T19:55:48.631Z,2.05
2024-02-07T19:58:18.698Z,2.05
2024-02-07T20:00:51.128Z,1.67
2024-02-07T20:03:19.706Z,1.42
2024-02-07T20:05:48.805Z,1.88
2024-02-07T20:08:19.325Z,2.00
2024-02-07T20:10:59.190Z,2.03
2024-02-07T20:13:33.756Z,2.00
2024-02-07T20:16:02.824Z,1.25
2024-02-07T20:18:31.316Z,1.20
2024-02-07T20:21:00.249Z,1.55
2024-02-07T20:23:30.151Z,1.88
2024-02-07T20:26:05.435Z,1.40
2024-02-07T20:28:36.123Z,1.52
2024-02-07T20:31:04.747Z,1.73
2024-02-07T20:33:33.355Z,1.90
2024-02-07T20:36:03.684Z,1.90
2024-02-07T20:38:34.317Z,1.60
2024-02-07T20:41:03.127Z,1.00
2024-02-07T20:43:33.909Z,1.60
2024-02-07T20:46:02.379Z,1.80
2024-02-07T20:48:30.837Z,1.45
2024-02-07T20:51:01.063Z,1.13
2024-02-07T20:53:29.739Z,1.10
2024-02-07T20:55:59.514Z,1.27
2024-02-07T20:58:27.681Z,2.10
2024-02-07T21:00:55.916Z,1.40
2024-02-07T21:03:25.716Z,1.60
2024-02-07T21:05:58.145Z,1.60
2024-02-07T21:08:26.973Z,1.75
2024-02-07T21:10:55.274Z,1.92
2024-02-07T21:13:25.189Z,1.45
2024-02-07T21:15:53.472Z,1.40
2024-02-07T21:18:24.311Z,1.30
2024-02-07T21:20:52.601Z,1.63
2024-02-07T21:23:20.827Z,1.25
2024-02-07T21:25:49.000Z,1.60
2024-02-07T21:28:17.361Z,1.27
2024-02-07T21:30:49.670Z,1.60
2024-02-07T21:33:18.736Z,1.50
2024-02-07T21:35:48.097Z,1.30
2024-02-07T21:38:16.575Z,2.45
2024-02-07T21:40:45.058Z,1.00
2024-02-07T21:43:13.270Z,1.33
2024-02-07T21:45:42.826Z,1.30
2024-02-07T21:48:13.097Z,1.25
2024-02-07T21:50:41.360Z,1.20
2024-02-07T21:53:09.692Z,1.00
2024-02-07T21:55:38.258Z,1.08
2024-02-07T21:58:09.873Z,1.48
2024-02-07T22:00:38.117Z,1.20
2024-02-07T22:03:07.983Z,0.98
2024-02-07T22:05:37.572Z,0.95
2024-02-07T22:08:07.764Z,1.27
2024-02-07T22:10:37.985Z,1.20
2024-02-07T22:13:09.112Z,1.10
2024-02-07T22:15:39.666Z,1.00
2024-02-07T22:18:08.644Z,1.33
2024-02-07T22:20:38.786Z,1.00
2024-02-07T22:23:07.235Z,1.15
2024-02-07T22:25:35.594Z,0.95
2024-02-07T22:28:04.071Z,1.10
2024-02-07T22:30:32.247Z,1.00
2024-02-07T22:33:01.065Z,1.10
2024-02-07T22:35:29.243Z,0.93
2024-02-07T22:37:59.117Z,1.00
2024-02-07T22:40:29.467Z,1.08
2024-02-07T22:42:59.276Z,1.02
2024-02-07T22:45:28.674Z,1.10
2024-02-07T22:47:58.511Z,0.80
2024-02-07T22:50:26.921Z,0.70
2024-02-07T22:52:55.072Z,0.70
2024-02-07T22:55:28.644Z,1.13
2024-02-07T22:57:57.366Z,0.93
2024-02-07T23:00:33.342Z,0.90
2024-02-07T23:03:01.866Z,0.88
2024-02-07T23:05:30.049Z,0.90
2024-02-07T23:07:58.506Z,0.63
2024-02-07T23:10:28.156Z,1.10
2024-02-07T23:12:56.762Z,0.80
2024-02-07T23:15:24.945Z,0.85
2024-02-07T23:17:53.128Z,0.70
2024-02-07T23:20:21.948Z,0.60
2024-02-07T23:22:52.702Z,0.93
2024-02-07T23:25:21.127Z,0.85
2024-02-07T23:27:52.422Z,0.80
2024-02-07T23:30:20.958Z,0.77
2024-02-07T23:32:49.412Z,0.60
2024-02-07T23:35:17.775Z,0.70
2024-02-07T23:37:46.042Z,0.70
2024-02-07T23:40:14.477Z,1.13
2024-02-07T23:42:41.663Z,0.70
2024-02-07T23:45:11.445Z,0.70
2024-02-07T23:47:40.011Z,0.70
2024-02-07T23:50:10.741Z,0.90
2024-02-07T23:52:39.005Z,0.95
2024-02-07T23:55:08.336Z,0.80
2024-02-07T23:57:36.468Z,0.80
